Forside
METAR-TAF:

METAR-TAF

Lufthavne :

Rusk_County_Airport

Ladysmith, Wisconsin, USA

Breddekreds: 45-29-48N, længdekreds: 091-00-01W, højde: 377 m

Aktuelle vejr

Denne rapport blev lavet for 18 minutter siden, kl. 03:35 UTC
Vind 12 kt fra østsydøst med vindstød på up til 17 kt
Temperatur -5°C
Fugtighed 93%
Tryk 1019 hPa
Sigt: 2.8 km
Overskyet i en højde af 800 ft
let sne

METAR: KRCX 180335Z AUTO 11012G17KT 1 3/4SM -SN OVC008 M05/M06 A3009 RMK AO2 T10501063

Tid: 21:53 (03:53 UTC)


TAF: fraværende

Vejrobservationer og prognoser fra mere end 4000 lufthavne (METAR og TAF).

De gule og røde prikker repræsenterer de meteorologiske stationer.

Flyt musen over at se navnet på stationen.

Så klik over at se vejr observationer og prognoser.

At skifte det kort: Klik på de grønne knapper med et sort kors for at zoome ind; på den grønne knap med en bindestreg for at zoome ud; eller på de grønne pile for tilstødende kort.


METAR-TAF: